Time;durP1;ratioP1;P1;durP2;ratioP2;P2;SDS_P1;SDS_P2;PMS_P1;PMS_P2;Temp;Humidity;BMP_temperature;BMP_pressure;BME280_temperature;BME280_humidity;BME280_pressure;Samples;Min_cycle;Max_cycle;Signal;HPM_P1;HPM_P2
2024/01/21 00:00:56;;;;;;;45.58;24.80;;;;;;;1.79;65.75;102078.66;5070720;28;20021;-82
2024/01/21 00:03:22;;;;;;;44.83;24.73;;;;;;;1.77;66.18;102085.78;5070814;28;20454;-83
2024/01/21 00:05:47;;;;;;;44.33;23.77;;;;;;;1.57;66.03;102080.91;5068794;28;20028;-80
2024/01/21 00:08:13;;;;;;;44.45;24.63;;;;;;;1.66;66.16;102095.72;5070521;28;20174;-81
2024/01/21 00:10:38;;;;;;;41.17;24.10;;;;;;;1.71;66.22;102093.00;5070693;28;20021;-80
2024/01/21 00:13:04;;;;;;;56.67;25.38;;;;;;;1.80;66.46;102108.72;5070521;28;20029;-82
2024/01/21 00:15:29;;;;;;;50.97;26.23;;;;;;;1.80;66.29;102095.44;5070494;28;20535;-80
2024/01/21 00:17:55;;;;;;;45.53;24.48;;;;;;;1.78;66.45;102098.13;5070488;28;20028;-80
2024/01/21 00:20:20;;;;;;;49.60;25.35;;;;;;;1.76;65.97;102076.06;5070645;28;20412;-79
2024/01/21 00:22:46;;;;;;;39.92;24.85;;;;;;;1.78;66.07;102073.38;5070160;28;20454;-80
2024/01/21 00:25:11;;;;;;;43.42;24.58;;;;;;;1.88;65.66;102085.53;5069990;28;20021;-81
2024/01/21 00:27:38;;;;;;;49.15;26.38;;;;;;;1.83;65.09;102084.78;5070596;28;20441;-82
2024/01/21 00:30:04;;;;;;;52.00;26.13;;;;;;;1.72;64.77;102074.38;5049105;28;20048;-80
2024/01/21 00:32:30;;;;;;;43.80;25.23;;;;;;;1.90;64.33;102108.47;5049829;28;20068;-82
2024/01/21 00:34:55;;;;;;;49.13;25.83;;;;;;;1.71;64.61;102100.97;5048749;28;20083;-81
2024/01/21 00:37:21;;;;;;;57.60;26.65;;;;;;;1.73;64.51;102107.09;5051685;28;20036;-82
2024/01/21 00:39:47;;;;;;;43.13;23.92;;;;;;;1.71;64.83;102114.22;5052403;28;20037;-81
2024/01/21 00:42:13;;;;;;;47.72;24.83;;;;;;;1.63;64.97;102096.69;5051642;28;20025;-82
2024/01/21 00:44:39;;;;;;;40.70;22.67;;;;;;;1.67;65.22;102112.53;5070757;28;20051;-80
2024/01/21 00:47:04;;;;;;;45.75;25.92;;;;;;;1.49;65.56;102081.97;5056951;28;20092;-82
2024/01/21 00:49:30;;;;;;;45.40;25.20;;;;;;;1.56;66.05;102084.44;5054404;28;20098;-82
2024/01/21 00:51:58;;;;;;;46.35;23.20;;;;;;;1.72;66.31;102105.34;5048423;28;20655;-82
2024/01/21 00:54:23;;;;;;;56.60;25.52;;;;;;;1.75;66.72;102106.16;5047300;28;20029;-82
2024/01/21 00:56:49;;;;;;;48.15;24.27;;;;;;;1.64;67.03;102087.81;5047319;28;20047;-82
2024/01/21 00:59:14;;;;;;;39.45;23.17;;;;;;;1.61;67.72;102077.28;5047472;28;20086;-82
2024/01/21 01:01:40;;;;;;;41.28;23.35;;;;;;;1.78;67.81;102108.72;5064074;28;20102;-81
2024/01/21 01:04:06;;;;;;;40.13;22.33;;;;;;;1.84;68.07;102100.63;5069659;28;20123;-80
2024/01/21 01:06:33;;;;;;;39.15;22.30;;;;;;;1.82;68.38;102107.78;5069422;28;20026;-80
2024/01/21 01:08:58;;;;;;;40.05;22.45;;;;;;;1.39;68.81;102064.50;5069438;28;20024;-81
2024/01/21 01:11:24;;;;;;;37.47;23.48;;;;;;;1.52;69.32;102088.09;5069639;28;20047;-81
2024/01/21 01:13:50;;;;;;;36.75;21.95;;;;;;;1.57;69.80;102099.47;5069199;28;20073;-82
2024/01/21 01:16:16;;;;;;;35.92;21.48;;;;;;;1.57;69.97;102099.47;5069188;28;20024;-79
2024/01/21 01:18:42;;;;;;;37.47;22.00;;;;;;;1.58;69.91;102092.38;5068977;28;20090;-79
2024/01/21 01:21:10;;;;;;;34.67;20.92;;;;;;;1.23;69.90;102049.81;5069277;28;20029;-80
2024/01/21 01:23:36;;;;;;;35.40;20.80;;;;;;;1.48;70.19;102086.41;5069625;28;20024;-81
2024/01/21 01:26:01;;;;;;;35.90;20.77;;;;;;;1.68;70.43;102104.56;5069939;28;20476;-81
2024/01/21 01:28:27;;;;;;;34.78;21.15;;;;;;;1.65;70.27;102101.97;5070812;28;20386;-80
2024/01/21 01:30:52;;;;;;;35.42;21.60;;;;;;;1.61;70.49;102105.56;5071524;28;20028;-79
2024/01/21 01:33:18;;;;;;;35.30;20.27;;;;;;;1.47;70.62;102107.63;5073639;28;20021;-82
2024/01/21 01:35:43;;;;;;;34.00;21.23;;;;;;;1.58;71.04;102108.28;5094014;28;20044;-81
2024/01/21 01:38:12;;;;;;;32.50;20.52;;;;;;;1.68;71.57;102114.28;5094903;28;20057;-81
2024/01/21 01:40:38;;;;;;;37.03;21.15;;;;;;;1.56;70.98;102089.75;5092726;28;20033;-81
2024/01/21 01:43:03;;;;;;;39.03;20.52;;;;;;;1.70;71.15;102108.03;5081558;28;20520;-81
2024/01/21 01:45:29;;;;;;;30.08;18.75;;;;;;;1.58;71.08;102093.25;5068686;28;20031;-79
2024/01/21 01:47:56;;;;;;;31.80;19.02;;;;;;;1.64;70.81;102102.84;5068724;28;20036;-80
2024/01/21 01:50:22;;;;;;;32.75;18.92;;;;;;;1.74;70.89;102109.72;5068411;28;20033;-81
2024/01/21 01:52:49;;;;;;;30.00;17.45;;;;;;;1.56;70.79;102088.91;5069216;28;20021;-80
2024/01/21 01:55:14;;;;;;;27.15;18.48;;;;;;;1.64;71.26;102102.84;5068643;28;20020;-81
2024/01/21 01:57:40;;;;;;;33.15;19.50;;;;;;;1.64;70.96;102092.25;5067832;28;20840;-80
2024/01/21 02:00:06;;;;;;;34.95;19.33;;;;;;;1.71;71.14;102104.50;5068567;28;20033;-79
2024/01/21 02:02:36;;;;;;;32.40;19.23;;;;;;;1.59;71.05;102099.44;5068849;28;20025;-81
2024/01/21 02:05:04;;;;;;;32.65;19.92;;;;;;;1.50;71.40;102075.75;5068557;28;20388;-80
2024/01/21 02:07:31;;;;;;;29.63;16.95;;;;;;;1.51;71.26;102073.06;5068079;28;20605;-82
2024/01/21 02:09:56;;;;;;;27.45;17.60;;;;;;;1.77;71.46;102116.72;5068632;28;20021;-79
2024/01/21 02:12:22;;;;;;;29.75;16.63;;;;;;;1.76;71.11;102102.59;5067249;28;20476;-80
2024/01/21 02:14:48;;;;;;;27.58;16.30;;;;;;;1.82;70.90;102102.47;5069340;28;20029;-81
2024/01/21 02:17:13;;;;;;;28.50;17.25;;;;;;;1.81;70.97;102113.97;5068993;28;20054;-79
2024/01/21 02:19:39;;;;;;;25.08;15.80;;;;;;;1.77;71.09;102104.34;5071021;28;20032;-79
2024/01/21 02:22:04;;;;;;;23.63;15.80;;;;;;;1.77;71.06;102100.81;5069968;28;20033;-79
2024/01/21 02:24:31;;;;;;;24.13;15.13;;;;;;;1.73;70.94;102099.13;5078039;28;20016;-82
2024/01/21 02:26:57;;;;;;;23.10;15.73;;;;;;;1.85;70.81;102117.44;5089379;28;20568;-79
2024/01/21 02:29:24;;;;;;;22.08;13.93;;;;;;;1.90;70.71;102123.50;5070071;28;20105;-81
2024/01/21 02:31:52;;;;;;;21.27;14.48;;;;;;;1.93;70.76;102129.63;5070484;28;20381;-80
2024/01/21 02:34:19;;;;;;;20.27;14.40;;;;;;;1.98;70.70;102124.22;5068678;28;20036;-80
2024/01/21 02:36:45;;;;;;;24.33;14.80;;;;;;;1.97;70.62;102123.34;5084251;28;20593;-81
2024/01/21 02:39:10;;;;;;;21.25;14.18;;;;;;;1.84;70.44;102100.63;5068134;28;20058;-80
2024/01/21 02:41:36;;;;;;;22.35;14.25;;;;;;;1.93;70.37;102102.22;5068256;28;20028;-79
2024/01/21 02:44:01;;;;;;;18.98;13.02;;;;;;;2.05;70.44;102129.34;5068509;28;20033;-81
2024/01/21 02:46:27;;;;;;;24.63;15.05;;;;;;;2.05;70.25;102126.69;5069007;28;20028;-79
2024/01/21 02:48:53;;;;;;;22.17;14.52;;;;;;;1.85;70.33;102094.44;5068581;28;20434;-80
2024/01/21 02:51:18;;;;;;;23.50;15.75;;;;;;;1.86;70.43;102092.66;5067437;28;20024;-80
2024/01/21 02:53:44;;;;;;;21.58;14.63;;;;;;;2.16;70.33;102150.34;5067843;28;20033;-81
2024/01/21 02:56:22;;;;;;;17.52;13.25;;;;;;;1.85;70.24;102123.63;5068076;28;20035;-81
2024/01/21 02:58:52;;;;;;;18.38;13.68;;;;;;;1.96;70.22;102121.59;5067883;28;20507;-81
2024/01/21 03:01:18;;;;;;;21.38;14.32;;;;;;;1.92;70.16;102133.19;5067920;28;20024;-81
2024/01/21 03:03:44;;;;;;;19.58;13.43;;;;;;;2.02;70.18;102140.03;5066728;28;20111;-80
2024/01/21 03:06:09;;;;;;;19.58;13.23;;;;;;;2.09;70.39;102152.25;5067777;28;20035;-81
2024/01/21 03:08:35;;;;;;;21.60;13.85;;;;;;;2.11;70.47;102145.13;5069297;28;20067;-80
2024/01/21 03:11:01;;;;;;;19.02;13.38;;;;;;;1.97;70.46;102128.66;5074277;28;20032;-80
2024/01/21 03:13:26;;;;;;;16.83;12.10;;;;;;;1.92;70.11;102141.16;5073167;28;20086;-81
2024/01/21 03:15:53;;;;;;;17.05;12.05;;;;;;;1.80;70.25;102157.34;5090154;28;20024;-82
2024/01/21 03:18:18;;;;;;;17.67;12.75;;;;;;;1.69;70.52;102138.09;5097364;28;20063;-81
2024/01/21 03:20:44;;;;;;;21.50;13.68;;;;;;;1.73;71.10;102176.94;5074171;28;20032;-79
2024/01/21 03:23:10;;;;;;;16.77;12.55;;;;;;;1.59;71.29;102131.25;5071241;28;20028;-81
2024/01/21 03:25:35;;;;;;;18.30;13.35;;;;;;;1.85;71.42;102181.09;5071228;28;20106;-80
2024/01/21 03:28:01;;;;;;;21.30;12.82;;;;;;;1.87;71.23;102173.97;5070824;28;20479;-79
2024/01/21 03:30:26;;;;;;;21.30;13.20;;;;;;;1.93;71.41;102174.72;5071958;28;20033;-80
2024/01/21 03:32:52;;;;;;;16.73;12.02;;;;;;;1.97;71.41;102178.19;5071160;28;20105;-81
2024/01/21 03:35:18;;;;;;;21.67;13.15;;;;;;;2.00;70.86;102176.34;5071180;28;20104;-80
2024/01/21 03:37:43;;;;;;;19.15;12.55;;;;;;;1.92;71.09;102175.66;5071211;28;20047;-80
2024/01/21 03:40:09;;;;;;;15.65;12.32;;;;;;;2.00;70.77;102183.44;5071266;28;20062;-81
2024/01/21 03:42:35;;;;;;;16.95;12.80;;;;;;;1.92;70.67;102167.69;5069499;28;20423;-79
2024/01/21 03:45:00;;;;;;;19.90;12.93;;;;;;;1.99;70.77;102193.16;5070756;28;20028;-78
2024/01/21 03:47:26;;;;;;;25.85;15.38;;;;;;;1.98;70.99;102177.28;5070717;28;20181;-79
2024/01/21 03:49:51;;;;;;;22.15;15.43;;;;;;;1.93;70.78;102172.06;5070792;28;20471;-80
2024/01/21 03:52:17;;;;;;;22.00;15.23;;;;;;;2.01;70.76;102190.50;5070820;28;20029;-80
2024/01/21 03:54:43;;;;;;;25.02;14.70;;;;;;;1.92;70.54;102196.00;5070741;28;20052;-80
2024/01/21 03:57:08;;;;;;;18.00;13.98;;;;;;;1.87;70.71;102198.72;5071157;28;20055;-79
2024/01/21 03:59:34;;;;;;;20.58;14.27;;;;;;;1.72;70.91;102176.94;5072229;28;20028;-79
2024/01/21 04:01:59;;;;;;;21.35;14.23;;;;;;;1.65;71.52;102184.16;5073774;28;20027;-81
2024/01/21 04:04:25;;;;;;;23.95;14.00;;;;;;;1.43;71.59;102172.22;5072320;28;20488;-80
2024/01/21 04:06:50;;;;;;;23.02;15.07;;;;;;;1.64;71.72;102196.56;5093068;28;20045;-82
2024/01/21 04:09:22;;;;;;;21.25;15.52;;;;;;;1.48;71.83;102173.88;5094303;28;20064;-82
2024/01/21 04:11:48;;;;;;;22.67;15.73;;;;;;;1.48;72.09;102175.66;5070933;28;20085;-80
2024/01/21 04:14:13;;;;;;;25.95;16.00;;;;;;;1.70;72.10;102213.22;5070483;28;20111;-81
2024/01/21 04:16:39;;;;;;;24.23;16.40;;;;;;;1.69;72.04;102209.69;5070675;28;20024;-80
2024/01/21 04:19:05;;;;;;;28.83;16.45;;;;;;;1.67;72.17;102195.63;5070069;28;20445;-81
2024/01/21 04:21:32;;;;;;;23.35;16.35;;;;;;;1.41;72.28;102169.59;5069522;28;20613;-81
2024/01/21 04:23:58;;;;;;;21.48;15.57;;;;;;;1.68;72.61;102215.06;5070080;28;20035;-80
2024/01/21 04:26:24;;;;;;;21.80;16.20;;;;;;;1.70;72.18;102198.19;5069586;28;20017;-81
2024/01/21 04:28:49;;;;;;;23.38;17.23;;;;;;;1.57;71.99;102196.69;5069966;28;20032;-81
2024/01/21 04:31:15;;;;;;;25.70;17.10;;;;;;;1.66;72.00;102199.16;5069873;28;20017;-79
2024/01/21 04:33:40;;;;;;;24.80;17.40;;;;;;;1.66;71.58;102212.41;5069885;28;20027;-79
2024/01/21 04:36:06;;;;;;;22.88;16.95;;;;;;;1.50;71.96;102192.38;5069672;28;20728;-79
2024/01/21 04:38:31;;;;;;;28.27;17.55;;;;;;;1.61;72.11;102214.28;5069675;28;20435;-79
2024/01/21 04:40:57;;;;;;;24.58;16.02;;;;;;;1.59;72.52;102232.03;5069673;28;20033;-80
2024/01/21 04:43:23;;;;;;;24.88;16.35;;;;;;;1.57;72.53;102212.59;5070312;28;20029;-79
2024/01/21 04:45:48;;;;;;;27.08;15.82;;;;;;;1.58;72.32;102225.84;5070276;28;20518;-79
2024/01/21 04:48:14;;;;;;;23.65;16.75;;;;;;;1.59;72.17;102221.41;5070714;28;20028;-79
2024/01/21 04:50:39;;;;;;;21.33;15.02;;;;;;;1.69;71.95;102244.19;5071997;28;20488;-81
2024/01/21 04:53:05;;;;;;;25.65;17.05;;;;;;;1.37;72.23;102214.75;5073288;28;20028;-78
2024/01/21 04:55:30;;;;;;;22.65;15.93;;;;;;;1.55;72.37;102257.72;5075092;28;20013;-82
2024/01/21 04:57:56;;;;;;;25.67;17.40;;;;;;;1.55;72.67;102259.50;5095852;28;20101;-81
2024/01/21 05:00:21;;;;;;;26.98;17.27;;;;;;;1.48;73.03;102256.06;5088211;28;20113;-81
2024/01/21 05:02:47;;;;;;;29.13;16.63;;;;;;;1.39;73.00;102250.06;5069967;28;20020;-79
2024/01/21 05:05:12;;;;;;;25.13;17.27;;;;;;;1.21;73.14;102205.31;5069466;28;20093;-80
2024/01/21 05:07:38;;;;;;;29.95;19.95;;;;;;;1.47;73.41;102264.91;5067579;28;20028;-80
2024/01/21 05:10:04;;;;;;;30.60;18.48;;;;;;;1.51;73.19;102268.38;5069251;28;20498;-80
2024/01/21 05:12:30;;;;;;;24.10;16.55;;;;;;;1.45;73.20;102249.94;5069082;28;20028;-79
2024/01/21 05:14:56;;;;;;;23.20;16.00;;;;;;;1.51;73.03;102260.44;5069692;28;20078;-80
2024/01/21 05:17:21;;;;;;;28.38;17.85;;;;;;;1.35;73.28;102235.09;5068936;28;20040;-79
2024/01/21 05:19:47;;;;;;;29.10;17.20;;;;;;;1.49;73.08;102256.94;5069044;28;20103;-81
2024/01/21 05:22:12;;;;;;;24.83;16.67;;;;;;;1.46;73.16;102246.41;5068772;28;20052;-80
2024/01/21 05:24:38;;;;;;;26.77;17.95;;;;;;;1.39;72.96;102239.44;5068707;28;20411;-79
2024/01/21 05:27:03;;;;;;;34.50;18.60;;;;;;;1.62;72.97;102274.41;5069284;28;20156;-79
2024/01/21 05:29:29;;;;;;;31.05;18.83;;;;;;;1.59;72.88;102253.25;5069028;28;20036;-82
2024/01/21 05:31:54;;;;;;;27.70;19.35;;;;;;;1.58;72.63;102241.75;5069516;28;20549;-80
2024/01/21 05:34:20;;;;;;;26.60;19.38;;;;;;;1.68;72.53;102274.28;5069083;28;20029;-80
2024/01/21 05:36:45;;;;;;;26.20;16.63;;;;;;;1.76;72.36;102269.69;5069474;28;20457;-79
2024/01/21 05:39:13;;;;;;;28.63;18.83;;;;;;;1.71;72.30;102268.91;5069917;28;20024;-80
2024/01/21 05:41:39;;;;;;;28.63;17.85;;;;;;;1.75;72.22;102275.88;5072018;28;20414;-80
2024/01/21 05:44:04;;;;;;;30.67;19.45;;;;;;;1.75;72.32;102286.50;5072305;28;20024;-79
2024/01/21 05:46:30;;;;;;;32.22;19.30;;;;;;;1.69;71.71;102277.78;5078329;28;20024;-82
2024/01/21 05:48:56;;;;;;;29.95;18.67;;;;;;;1.40;72.33;102252.69;5094448;28;20031;-81
2024/01/21 05:51:21;;;;;;;22.85;16.50;;;;;;;1.63;71.94;102281.44;5083532;28;20121;-79
2024/01/21 05:53:47;;;;;;;25.38;17.52;;;;;;;1.42;72.03;102263.25;5069773;28;20047;-81
2024/01/21 05:56:12;;;;;;;33.08;19.10;;;;;;;1.58;72.31;102299.19;5068589;28;20063;-80
2024/01/21 05:58:38;;;;;;;32.22;18.75;;;;;;;1.49;72.09;102259.59;5069053;28;20025;-80
2024/01/21 06:01:03;;;;;;;34.13;20.33;;;;;;;1.43;72.29;102265.00;5065725;28;20566;-79
2024/01/21 06:03:29;;;;;;;35.50;21.05;;;;;;;1.56;72.28;102278.00;5065729;28;20051;-80
2024/01/21 06:05:56;;;;;;;31.48;19.45;;;;;;;1.56;72.32;102279.81;5065990;28;20041;-82
2024/01/21 06:08:22;;;;;;;34.50;20.95;;;;;;;1.69;72.22;102288.38;5065360;28;20020;-81
2024/01/21 06:10:47;;;;;;;32.80;20.73;;;;;;;1.78;72.46;102286.44;5065499;28;20493;-79
2024/01/21 06:13:13;;;;;;;36.50;22.10;;;;;;;1.77;72.54;102305.06;5065635;28;20044;-80
2024/01/21 06:15:38;;;;;;;30.58;20.75;;;;;;;1.86;71.96;102308.41;5065559;28;20037;-81
2024/01/21 06:18:04;;;;;;;34.10;19.90;;;;;;;1.87;71.64;102302.19;5065619;28;20475;-81
2024/01/21 06:20:29;;;;;;;28.90;19.05;;;;;;;1.88;71.75;102319.88;5065538;28;20078;-80
2024/01/21 06:22:55;;;;;;;27.35;18.20;;;;;;;1.93;71.64;102315.34;5065306;28;20032;-80
2024/01/21 06:25:21;;;;;;;29.15;17.23;;;;;;;1.97;70.95;102318.81;5065603;28;20033;-81
2024/01/21 06:27:47;;;;;;;27.95;18.20;;;;;;;1.73;70.94;102283.00;5066526;28;20040;-82
2024/01/21 06:30:18;;;;;;;28.17;16.92;;;;;;;1.89;70.94;102320.75;5066602;28;20033;-81
2024/01/21 06:32:43;;;;;;;22.20;16.05;;;;;;;1.78;71.12;102322.69;5070428;28;20120;-80
2024/01/21 06:35:09;;;;;;;20.10;14.25;;;;;;;1.77;71.25;102327.16;5071192;28;20048;-80
2024/01/21 06:37:34;;;;;;;26.70;17.48;;;;;;;1.73;71.37;102330.75;5080821;28;20037;-81
2024/01/21 06:40:00;;;;;;;24.50;16.52;;;;;;;1.65;71.26;102316.78;5093648;28;20029;-82
2024/01/21 06:42:27;;;;;;;27.65;18.80;;;;;;;1.56;71.76;102316.94;5077966;28;20109;-80
2024/01/21 06:44:53;;;;;;;26.05;17.90;;;;;;;1.48;71.68;102298.47;5069216;28;20020;-81
2024/01/21 06:47:18;;;;;;;25.52;17.85;;;;;;;1.47;71.87;102290.53;5068138;28;20024;-80
2024/01/21 06:49:44;;;;;;;25.35;18.38;;;;;;;1.68;72.04;102324.66;5066249;28;20058;-80
2024/01/21 06:52:09;;;;;;;28.05;18.15;;;;;;;1.65;72.02;102319.41;5067282;28;20024;-80
2024/01/21 06:54:35;;;;;;;27.85;16.58;;;;;;;1.64;71.62;102294.66;5067835;28;20110;-80
2024/01/21 06:57:00;;;;;;;27.60;17.95;;;;;;;1.59;72.02;102322.19;5066187;28;20569;-80
2024/01/21 06:59:26;;;;;;;31.02;20.13;;;;;;;1.48;72.05;102309.09;5067916;28;20044;-80
2024/01/21 07:01:51;;;;;;;24.05;16.88;;;;;;;1.53;72.41;102301.03;5067364;28;20029;-80
2024/01/21 07:04:20;;;;;;;22.40;15.00;;;;;;;1.55;71.67;102307.22;5067707;28;20089;-81
2024/01/21 07:06:45;;;;;;;27.42;16.25;;;;;;;1.45;71.54;102303.84;5067269;28;20111;-79
2024/01/21 07:09:11;;;;;;;24.83;16.55;;;;;;;1.58;71.75;102323.94;5067607;28;20111;-79
2024/01/21 07:11:42;;;;;;;21.42;16.27;;;;;;;1.23;71.83;102251.22;5067568;28;20028;-80
2024/01/21 07:14:08;;;;;;;23.65;16.50;;;;;;;1.67;71.22;102330.88;5067874;28;20035;-81
2024/01/21 07:16:34;;;;;;;22.27;16.90;;;;;;;1.62;71.37;102330.94;5068099;28;20041;-80
2024/01/21 07:19:00;;;;;;;28.83;17.77;;;;;;;1.60;71.29;102318.59;5067858;28;20082;-79
2024/01/21 07:21:25;;;;;;;23.65;14.57;;;;;;;1.66;71.56;102334.41;5068400;28;20024;-81
2024/01/21 07:23:51;;;;;;;21.30;14.35;;;;;;;1.74;71.43;102339.59;5070333;28;20472;-80
2024/01/21 07:26:18;;;;;;;21.95;14.27;;;;;;;1.52;71.29;102325.81;5069927;28;20058;-80
2024/01/21 07:28:43;;;;;;;17.33;13.25;;;;;;;1.58;71.45;102333.69;5083018;28;20063;-81
2024/01/21 07:31:09;;;;;;;19.27;12.50;;;;;;;1.65;70.95;102344.13;5093394;28;20036;-81
2024/01/21 07:33:34;;;;;;;18.70;13.32;;;;;;;1.65;70.73;102330.03;5075174;28;20412;-81
2024/01/21 07:36:03;;;;;;;21.55;13.43;;;;;;;1.68;70.64;102326.44;5067516;28;20544;-80
2024/01/21 07:38:29;;;;;;;23.20;15.60;;;;;;;1.81;70.82;102341.22;5067372;28;20170;-81
2024/01/21 07:40:54;;;;;;;21.58;13.68;;;;;;;1.63;70.64;102305.28;5067262;28;20067;-81
2024/01/21 07:43:20;;;;;;;24.85;15.23;;;;;;;1.95;70.75;102352.47;5067207;28;20017;-80
2024/01/21 07:45:46;;;;;;;23.95;15.43;;;;;;;1.87;70.77;102318.09;5066823;28;20028;-82
2024/01/21 07:48:11;;;;;;;24.40;15.98;;;;;;;2.07;70.37;102342.50;5067080;28;20025;-81
2024/01/21 07:50:37;;;;;;;23.50;14.93;;;;;;;2.06;70.43;102314.19;5066944;28;20031;-81
2024/01/21 07:53:02;;;;;;;21.83;13.45;;;;;;;2.19;70.46;102320.16;5067239;28;20044;-79
2024/01/21 07:55:28;;;;;;;18.35;12.80;;;;;;;2.40;69.71;102350.69;5067555;28;20033;-80
2024/01/21 07:57:53;;;;;;;19.90;14.88;;;;;;;2.09;69.67;102314.16;5086305;28;20488;-81
2024/01/21 08:00:19;;;;;;;16.83;12.40;;;;;;;2.41;69.34;102353.34;5070570;28;21151;-80
2024/01/21 08:02:44;;;;;;;22.30;13.77;;;;;;;2.09;68.76;102295.56;5070332;28;20078;-80
2024/01/21 08:05:10;;;;;;;19.15;14.07;;;;;;;2.40;68.56;102359.53;5072609;28;20024;-79
2024/01/21 08:07:36;;;;;;;19.13;13.25;;;;;;;2.34;68.66;102340.19;5068334;28;20106;-80
2024/01/21 08:10:04;;;;;;;22.92;14.32;;;;;;;2.56;68.58;102354.78;5067998;28;20041;-79
2024/01/21 08:12:30;;;;;;;22.10;15.18;;;;;;;2.47;68.37;102357.63;5068476;28;20037;-79
2024/01/21 08:14:56;;;;;;;18.40;14.40;;;;;;;2.57;68.28;102369.81;5070689;28;20043;-80
2024/01/21 08:17:22;;;;;;;21.65;15.13;;;;;;;2.50;68.34;102368.19;5069657;28;20043;-79
2024/01/21 08:19:47;;;;;;;19.45;13.38;;;;;;;2.54;67.91;102375.19;5087716;28;20043;-81
2024/01/21 08:22:13;;;;;;;24.23;14.98;;;;;;;2.56;68.13;102362.75;5094491;28;20040;-82
2024/01/21 08:24:38;;;;;;;21.33;13.70;;;;;;;2.51;67.79;102361.97;5071122;28;20043;-80
2024/01/21 08:27:05;;;;;;;23.75;13.88;;;;;;;2.74;67.47;102373.00;5067638;28;20037;-81
2024/01/21 08:29:30;;;;;;;24.98;14.93;;;;;;;2.56;67.31;102325.59;5084345;28;20029;-80
2024/01/21 08:31:56;;;;;;;23.38;15.23;;;;;;;3.01;67.09;102371.53;5067497;28;20025;-79
2024/01/21 08:34:22;;;;;;;20.80;14.38;;;;;;;2.95;66.77;102339.75;5067078;28;20122;-81
2024/01/21 08:36:48;;;;;;;22.88;14.65;;;;;;;3.14;66.14;102359.72;5067338;28;20032;-79
2024/01/21 08:39:14;;;;;;;19.55;14.38;;;;;;;2.99;66.13;102342.34;5069070;28;20513;-80
2024/01/21 08:41:39;;;;;;;25.88;15.98;;;;;;;3.12;65.63;102372.16;5070283;28;20025;-80
2024/01/21 08:44:06;;;;;;;20.73;14.75;;;;;;;3.11;65.78;102365.09;5069635;28;20062;-79
2024/01/21 08:46:32;;;;;;;29.23;17.23;;;;;;;3.36;65.94;102365.41;5069341;28;20016;-80
2024/01/21 08:48:57;;;;;;;26.25;16.23;;;;;;;3.22;65.46;102345.31;5069777;28;20035;-80
2024/01/21 08:51:23;;;;;;;21.92;15.82;;;;;;;3.42;65.12;102359.94;5069457;28;20024;-83
2024/01/21 08:53:55;;;;;;;21.70;16.77;;;;;;;3.58;65.18;102366.59;5069726;28;20054;-79
2024/01/21 08:56:21;;;;;;;;;;;;;;;3.67;64.61;102382.38;5067667;28;20135;-79
2024/01/21 08:58:46;;;;;;;17.92;12.68;;;;;;;3.60;63.75;102343.50;5069723;28;19991;-81
2024/01/21 09:01:12;;;;;;;21.13;14.35;;;;;;;3.76;63.88;102358.19;5069830;28;20024;-79
2024/01/21 09:03:37;;;;;;;23.77;14.77;;;;;;;3.67;63.66;102356.59;5070961;28;20024;-79
2024/01/21 09:06:03;;;;;;;22.08;14.52;;;;;;;3.65;63.76;102354.91;5071451;28;20641;-78
2024/01/21 09:08:28;;;;;;;26.13;15.52;;;;;;;3.67;63.63;102353.09;5070650;28;20483;-81
2024/01/21 09:10:54;;;;;;;20.55;15.18;;;;;;;3.58;63.64;102334.69;5093151;28;20036;-80
2024/01/21 09:13:20;;;;;;;25.13;16.25;;;;;;;3.80;63.77;102349.19;5093034;28;20028;-81
2024/01/21 09:15:45;;;;;;;20.73;13.70;;;;;;;3.85;64.01;102331.34;5069438;28;20025;-80
2024/01/21 09:18:11;;;;;;;20.17;12.82;;;;;;;3.91;63.85;102309.00;5069313;28;20038;-78
2024/01/21 09:20:36;;;;;;;20.90;12.88;;;;;;;4.01;63.41;102327.31;5069185;28;20032;-80
2024/01/21 09:23:02;;;;;;;23.05;13.95;;;;;;;4.15;62.53;102338.50;5068958;28;20028;-80
2024/01/21 09:25:27;;;;;;;17.42;12.88;;;;;;;4.01;63.04;102345.06;5069308;28;20548;-80
2024/01/21 09:27:53;;;;;;;18.05;13.27;;;;;;;3.92;63.16;102327.56;5084407;28;20024;-81
2024/01/21 09:30:19;;;;;;;23.00;14.40;;;;;;;4.05;63.31;102329.00;5068616;28;20024;-80
2024/01/21 09:32:44;;;;;;;18.48;12.70;;;;;;;4.23;63.02;102336.47;5068927;28;20036;-79
2024/01/21 09:35:09;;;;;;;16.02;10.55;;;;;;;4.09;61.87;102304.03;5068317;28;20135;-79
2024/01/21 09:37:35;;;;;;;16.95;11.88;;;;;;;4.10;61.54;102315.53;5069137;28;20028;-82
2024/01/21 09:40:00;;;;;;;15.82;10.95;;;;;;;3.92;62.01;102303.63;5068537;28;20029;-81
2024/01/21 09:42:26;;;;;;;13.90;11.50;;;;;;;3.88;61.22;102309.97;5068745;28;20044;-81
2024/01/21 09:44:52;;;;;;;16.58;11.35;;;;;;;3.90;61.33;102313.44;5068484;28;20039;-79
2024/01/21 09:47:18;;;;;;;15.73;10.95;;;;;;;3.69;61.26;102271.44;5068948;28;20029;-81
2024/01/21 09:49:45;;;;;;;16.85;11.68;;;;;;;3.88;60.96;102309.09;5069032;28;20029;-81
2024/01/21 09:52:11;;;;;;;16.58;12.13;;;;;;;3.93;60.43;102308.03;5069509;28;20013;-78
2024/01/21 09:54:37;;;;;;;13.98;11.23;;;;;;;3.76;60.68;102283.69;5070460;28;20127;-79
2024/01/21 09:57:05;;;;;;;12.93;10.10;;;;;;;3.73;60.80;102302.38;5070752;28;20108;-79
2024/01/21 09:59:32;;;;;;;13.32;10.75;;;;;;;3.81;61.62;102311.03;5070748;28;20563;-81
2024/01/21 10:01:58;;;;;;;13.10;10.93;;;;;;;3.73;61.90;102284.59;5093049;28;20024;-82
2024/01/21 10:04:23;;;;;;;12.52;9.85;;;;;;;3.88;60.64;102315.28;5089475;28;20089;-81
2024/01/21 10:06:51;;;;;;;10.88;8.80;;;;;;;3.79;60.35;102304.88;5082863;28;20032;-82
2024/01/21 10:09:21;;;;;;;12.23;8.88;;;;;;;3.56;60.55;102299.28;5068380;28;20064;-80
2024/01/21 10:11:54;;;;;;;10.40;8.93;;;;;;;3.29;60.42;102267.16;5067898;28;20028;-80
2024/01/21 10:14:23;;;;;;;16.27;10.90;;;;;;;3.22;60.73;102297.47;5068098;28;20039;-80
2024/01/21 10:16:49;;;;;;;12.25;9.13;;;;;;;3.21;61.42;102301.00;5068007;28;20020;-81
2024/01/21 10:19:15;;;;;;;20.70;13.23;;;;;;;3.37;62.06;102314.81;5067501;28;20685;-80
2024/01/21 10:21:41;;;;;;;21.63;11.75;;;;;;;3.35;62.70;102318.44;5068456;28;20029;-81
2024/01/21 10:24:09;;;;;;;15.00;10.15;;;;;;;3.39;62.46;102314.78;5065643;28;20032;-81
2024/01/21 10:26:36;;;;;;;15.80;11.10;;;;;;;2.98;63.16;102267.94;5067950;28;20111;-81
2024/01/21 10:29:02;;;;;;;21.60;12.32;;;;;;;3.22;63.38;102300.13;5066703;28;20054;-79
2024/01/21 10:31:28;;;;;;;18.60;11.88;;;;;;;3.39;63.49;102314.78;5067834;28;20031;-80
2024/01/21 10:33:53;;;;;;;17.13;10.85;;;;;;;3.44;62.90;102307.56;5066492;28;20040;-80
2024/01/21 10:36:20;;;;;;;41.67;11.50;;;;;;;3.41;62.71;102291.69;5067657;28;20048;-82
2024/01/21 10:38:49;;;;;;;16.48;11.07;;;;;;;3.55;63.06;102297.50;5067916;28;20040;-81
2024/01/21 10:41:29;;;;;;;15.82;10.55;;;;;;;3.63;63.21;102303.53;5068324;28;20484;-82
2024/01/21 10:43:56;;;;;;;15.57;11.48;;;;;;;3.79;62.38;102304.88;5068680;28;20123;-80
2024/01/21 10:46:24;;;;;;;16.80;10.65;;;;;;;4.00;62.43;102303.41;5070580;28;20071;-80
2024/01/21 10:48:55;;;;;;;21.42;11.73;;;;;;;4.05;61.63;102286.41;5069794;28;20472;-81
2024/01/21 10:51:22;;;;;;;17.33;12.07;;;;;;;4.29;60.88;102311.44;5081572;28;20025;-83
2024/01/21 10:53:52;;;;;;;15.82;10.90;;;;;;;4.37;61.34;102304.13;5094170;28;20293;-84
2024/01/21 10:56:19;;;;;;;16.33;11.00;;;;;;;4.59;60.75;102315.00;5077075;28;20407;-80
2024/01/21 10:58:46;;;;;;;26.27;11.93;;;;;;;4.76;60.85;102312.72;5068184;28;20170;-80
2024/01/21 11:01:13;;;;;;;16.17;11.40;;;;;;;4.73;59.39;102283.50;5067524;28;20115;-81
2024/01/21 11:03:40;;;;;;;15.95;10.60;;;;;;;4.89;58.90;102298.09;5067615;28;20105;-79
2024/01/21 11:06:09;;;;;;;16.83;10.95;;;;;;;5.06;58.87;102327.78;5067408;28;20039;-81
2024/01/21 11:08:35;;;;;;;21.17;10.93;;;;;;;5.14;58.71;102331.06;5065042;28;20040;-80
2024/01/21 11:11:11;;;;;;;19.95;11.43;;;;;;;5.24;58.69;102340.53;5067448;28;20039;-82